Ashiya Air Base, Japan

6:59 AM JST on February 13, 2016 (GMT +0900)
Akama Station(JR KYUSHU RAILWAY) | | Change Station
CLOSE
Current Station
Personal Weather Station
Location: Munakata, FUKUOKA
Elevation: 33 ft
Nearby Weather Stations

Elev 33 ft 33.80 °N, 130.57 °E | Updated 14 seconds ago

Heavy Rain Showers
Heavy Showers Rain Mist
57.8 °F
Feels Like 57.8 °F
N
9.2
Wind Variable Wind from East
Gusts 9.2 mph

Today
High -- | Low -- °F
--% Chance of Precip.
Yesterday
High -- | Low -- °F
Precip. -- in
Pressure 30.01 in
Visibility 3.1 miles
Clouds Few 300 ft
Mostly Cloudy 1000 ft
Overcast 1500 ft
Few 1500 ft
Dew Point 56 °F
Humidity 95%
Rainfall 0.23 in
Snow Depth Not available.
7:04 AM 5:58 PM
Waxing Crescent, 24% visible
SPECI RJOZ 122149Z 29003KT 5000 +SHRA BR FEW003 BKN010 OVC015 FEW015CB 14/13 Q1016 RMK 1ST003 5ST010 8CU015 2CB015 A3001 CB OHD MOV NE
Pressure 30.01 in
Visibility 3.1 miles
Clouds Few 300 ft
Mostly Cloudy 1000 ft
Overcast 1500 ft
Few 1500 ft
Dew Point 56 °F
Humidity 95%
Rainfall 0.23 in
Snow Depth Not available.
7:04 AM 5:58 PM
Waxing Crescent, 24% visible
SPECI RJOZ 122149Z 29003KT 5000 +SHRA BR FEW003 BKN010 OVC015 FEW015CB 14/13 Q1016 RMK 1ST003 5ST010 8CU015 2CB015 A3001 CB OHD MOV NE

10-Day Weather Forecast

No radar image for this location.
×

Almanac

Astronomy

Feb. 13, 2016 Rise Set
Actual Time
Civil Twilight
Nautical Twilight
Astronomical Twilight
Moon
Length of Visible Light
Length of Day
Tomorrow will be .
, % of the Moon is Illuminated

Today's Extremes

Country Highs Country Lows

Community

WunderPhotos

Upload Photos

1,892,408 photos uploaded!

WunderBlog® & News

Nearby

Air Quality

  Air Quality AQ Index Pollutant
Not available.

Snow Depth

Station Depth Elevation

Earthquake Activity

City Distance Mag. Time & Date
Minimum magnitude displayed is 2.5.

Coastal Water Temperatures

Place Temperature

Stations

Nearby Weather Stations

Station Location Temp. Windchill Dew Point Humidity Wind Precip. Elev Updated Type